Kinmount, Canada
Current Conditions -  °F | °C
As of 9:00 PM on Thursday 18 Dec 2014 (Local Time) from CYQA Reporting Station
Overcast Overcast  
Wind Chill:   Ceiling: 1000
Heat Index: 19°   Visibility: 9mi
Dew Point: 18°   Wind: 10mph
Humidity: 93%   Direction: 340°NNW
Pressure: 30.08"   Gusts: NA
Location:  44.78°N, 78.65°W
Report Text: CYQA 190200Z AUTO 34009KT 9SM OVC010 M07/M08 A3008 RMK SLP204
Loading
Personal Weather Stations






























Interactive Weather Map New forecast layout! Learn more

10-Day Weather Forecast

Advertisements
Track Severe Weather on mobile